Dalheim, Luxembourg
Current Conditions -  °F | °C
As of 6:50 PM on Monday 24 Nov 2014 (Local Time) from ELLX Reporting Station
Broken Clouds Broken Clouds  
Wind Chill: 41°   Ceiling: 2200
Heat Index: 46°   Visibility: 6mi
Dew Point: 41°   Wind: 10mph
Humidity: 81%   Direction: 60°ENE
Pressure: 30.24"   Gusts: NA
Location:  49.54°N, 6.26°E
Report Text: ELLX 241750Z 06009KT 020V090 9999 FEW015 BKN022 08/05 Q1024 NOSIG
Loading
Personal Weather Stations






























Interactive Weather Map New forecast layout! Learn more

10-Day Weather Forecast

Advertisements
Track Severe Weather on mobile